GRZ542 Details

Departure: Edmonton International Airport (CYEG)
Arrival: Ted Stevens Anchorage International Airport (PANC)
Route: YZU YQU NCA10 YAK J501 JOH ELLAM5


Current Weather Information
CYEG 260100Z 34011KT 20SM FEW094 FEW240 10/M12 A3007 RMK CU1CI2 CU TR SLP212
PANC 260053Z 20010KT 10SM FEW050 FEW100 BKN190 09/M06 A3007 RMK AO2 SLP183 ACSL DSNT S T00941061